< < Back
Terminal Aerodrome Forecast


Current Version              Previous Versions:   1  2  3  4  5  6  7  8  9  

Terminal Aerodrome Forecast

532
FTUS42 KCHS 241100
TAFCHS
TAF
KCHS 241120Z 2412/2512 04004KT P6SM SKC
     FM241500 07010KT P6SM SKC
     FM241900 12012G18KT P6SM SKC
     FM250200 15007KT P6SM SCT030
     FM250800 16005KT P6SM SCT015 BKN045=



Latest METAR

761
SAUS80 KWBC 242000 RRB
MTRCHS
METAR KCHS 241956Z 10013G19KT 10SM CLR 24/12 A3001 RMK AO2 SLP161
T02390117


USA.gov is the U.S. government's official web portal to all federal, state and local government web resources and services.